sensor_id;sensor_type;location;lat;lon;timestamp;P1;durP1;ratioP1;P2;durP2;ratioP2
76733;SDS011;65660;53.288;14.666;2023-12-22T00:03:49;19.20;;;6.00;;
76733;SDS011;65660;53.288;14.666;2023-12-22T00:08:50;18.10;;;5.33;;
76733;SDS011;65660;53.288;14.666;2023-12-22T00:13:50;21.23;;;6.10;;
76733;SDS011;65660;53.288;14.666;2023-12-22T00:18:51;21.43;;;8.40;;
76733;SDS011;65660;53.288;14.666;2023-12-22T00:23:51;17.07;;;6.07;;
76733;SDS011;65660;53.288;14.666;2023-12-22T00:28:52;13.27;;;4.97;;
76733;SDS011;65660;53.288;14.666;2023-12-22T00:33:52;16.13;;;6.87;;
76733;SDS011;65660;53.288;14.666;2023-12-22T00:38:53;17.30;;;6.33;;
76733;SDS011;65660;53.288;14.666;2023-12-22T00:43:53;16.57;;;6.20;;
76733;SDS011;65660;53.288;14.666;2023-12-22T00:48:54;15.87;;;5.90;;
76733;SDS011;65660;53.288;14.666;2023-12-22T00:53:55;16.57;;;5.17;;
76733;SDS011;65660;53.288;14.666;2023-12-22T00:58:55;22.03;;;6.07;;
76733;SDS011;65660;53.288;14.666;2023-12-22T01:03:56;19.13;;;5.83;;
76733;SDS011;65660;53.288;14.666;2023-12-22T01:08:56;27.63;;;5.37;;
76733;SDS011;65660;53.288;14.666;2023-12-22T01:13:56;16.77;;;5.60;;
76733;SDS011;65660;53.288;14.666;2023-12-22T01:18:57;17.83;;;6.00;;
76733;SDS011;65660;53.288;14.666;2023-12-22T01:23:57;20.87;;;7.97;;
76733;SDS011;65660;53.288;14.666;2023-12-22T01:28:58;20.57;;;7.63;;
76733;SDS011;65660;53.288;14.666;2023-12-22T01:33:58;15.53;;;7.60;;
76733;SDS011;65660;53.288;14.666;2023-12-22T01:38:59;17.00;;;8.20;;
76733;SDS011;65660;53.288;14.666;2023-12-22T01:44:00;16.50;;;6.83;;
76733;SDS011;65660;53.288;14.666;2023-12-22T01:49:00;18.53;;;7.63;;
76733;SDS011;65660;53.288;14.666;2023-12-22T01:54:01;24.83;;;6.37;;
76733;SDS011;65660;53.288;14.666;2023-12-22T01:59:01;14.03;;;5.40;;
76733;SDS011;65660;53.288;14.666;2023-12-22T02:04:02;16.47;;;5.53;;
76733;SDS011;65660;53.288;14.666;2023-12-22T02:09:03;22.23;;;5.83;;
76733;SDS011;65660;53.288;14.666;2023-12-22T02:14:04;15.97;;;5.83;;
76733;SDS011;65660;53.288;14.666;2023-12-22T02:24:36;12.00;;;5.17;;
76733;SDS011;65660;53.288;14.666;2023-12-22T02:29:37;14.50;;;8.30;;
76733;SDS011;65660;53.288;14.666;2023-12-22T02:34:42;14.90;;;5.63;;
76733;SDS011;65660;53.288;14.666;2023-12-22T02:39:47;14.60;;;5.73;;
76733;SDS011;65660;53.288;14.666;2023-12-22T02:44:57;12.07;;;5.47;;
76733;SDS011;65660;53.288;14.666;2023-12-22T02:49:58;12.57;;;6.27;;
76733;SDS011;65660;53.288;14.666;2023-12-22T02:54:58;13.87;;;5.53;;
76733;SDS011;65660;53.288;14.666;2023-12-22T02:59:59;13.27;;;5.13;;
76733;SDS011;65660;53.288;14.666;2023-12-22T03:04:59;15.83;;;5.40;;
76733;SDS011;65660;53.288;14.666;2023-12-22T03:10:00;16.33;;;7.90;;
76733;SDS011;65660;53.288;14.666;2023-12-22T03:15:00;18.07;;;5.53;;
76733;SDS011;65660;53.288;14.666;2023-12-22T03:20:01;15.40;;;5.87;;
76733;SDS011;65660;53.288;14.666;2023-12-22T03:25:01;10.57;;;6.27;;
76733;SDS011;65660;53.288;14.666;2023-12-22T03:30:02;13.73;;;5.43;;
76733;SDS011;65660;53.288;14.666;2023-12-22T03:35:03;10.53;;;6.20;;
76733;SDS011;65660;53.288;14.666;2023-12-22T03:40:03;11.13;;;5.07;;
76733;SDS011;65660;53.288;14.666;2023-12-22T03:45:05;11.87;;;5.27;;
76733;SDS011;65660;53.288;14.666;2023-12-22T03:50:06;15.53;;;5.00;;
76733;SDS011;65660;53.288;14.666;2023-12-22T03:55:07;13.77;;;5.30;;
76733;SDS011;65660;53.288;14.666;2023-12-22T04:00:07;11.63;;;5.30;;
76733;SDS011;65660;53.288;14.666;2023-12-22T04:05:10;14.33;;;5.47;;
76733;SDS011;65660;53.288;14.666;2023-12-22T04:10:11;16.93;;;5.23;;
76733;SDS011;65660;53.288;14.666;2023-12-22T04:15:12;14.33;;;5.13;;
76733;SDS011;65660;53.288;14.666;2023-12-22T04:20:12;11.13;;;5.13;;
76733;SDS011;65660;53.288;14.666;2023-12-22T04:25:13;14.30;;;4.90;;
76733;SDS011;65660;53.288;14.666;2023-12-22T04:30:13;13.57;;;5.20;;
76733;SDS011;65660;53.288;14.666;2023-12-22T04:35:14;13.70;;;4.80;;
76733;SDS011;65660;53.288;14.666;2023-12-22T04:40:14;14.40;;;4.90;;
76733;SDS011;65660;53.288;14.666;2023-12-22T04:45:15;10.97;;;4.67;;
76733;SDS011;65660;53.288;14.666;2023-12-22T04:50:15;13.83;;;5.30;;
76733;SDS011;65660;53.288;14.666;2023-12-22T04:55:16;11.87;;;5.67;;
76733;SDS011;65660;53.288;14.666;2023-12-22T05:00:17;11.73;;;5.07;;
76733;SDS011;65660;53.288;14.666;2023-12-22T05:05:17;12.73;;;4.70;;
76733;SDS011;65660;53.288;14.666;2023-12-22T05:10:18;12.20;;;5.07;;
76733;SDS011;65660;53.288;14.666;2023-12-22T05:15:18;16.63;;;6.23;;
76733;SDS011;65660;53.288;14.666;2023-12-22T05:20:19;12.60;;;4.90;;
76733;SDS011;65660;53.288;14.666;2023-12-22T05:25:19;12.53;;;5.03;;
76733;SDS011;65660;53.288;14.666;2023-12-22T05:30:20;13.90;;;4.47;;
76733;SDS011;65660;53.288;14.666;2023-12-22T05:35:20;10.10;;;4.47;;
76733;SDS011;65660;53.288;14.666;2023-12-22T05:40:21;10.53;;;4.07;;
76733;SDS011;65660;53.288;14.666;2023-12-22T05:45:21;12.00;;;5.20;;
76733;SDS011;65660;53.288;14.666;2023-12-22T05:50:22;16.23;;;4.40;;
76733;SDS011;65660;53.288;14.666;2023-12-22T05:55:22;16.30;;;4.50;;
76733;SDS011;65660;53.288;14.666;2023-12-22T06:00:23;10.07;;;3.40;;
76733;SDS011;65660;53.288;14.666;2023-12-22T06:05:23;11.00;;;4.67;;
76733;SDS011;65660;53.288;14.666;2023-12-22T06:10:24;9.57;;;3.90;;
76733;SDS011;65660;53.288;14.666;2023-12-22T06:15:24;5.40;;;3.33;;
76733;SDS011;65660;53.288;14.666;2023-12-22T06:20:25;5.47;;;2.80;;
76733;SDS011;65660;53.288;14.666;2023-12-22T06:25:25;5.00;;;3.30;;
76733;SDS011;65660;53.288;14.666;2023-12-22T06:30:25;7.10;;;2.90;;
76733;SDS011;65660;53.288;14.666;2023-12-22T06:35:26;9.47;;;2.87;;
76733;SDS011;65660;53.288;14.666;2023-12-22T06:40:26;10.57;;;3.10;;
76733;SDS011;65660;53.288;14.666;2023-12-22T06:45:27;9.23;;;3.10;;
76733;SDS011;65660;53.288;14.666;2023-12-22T06:50:27;8.43;;;3.00;;
76733;SDS011;65660;53.288;14.666;2023-12-22T06:55:28;10.37;;;3.20;;
76733;SDS011;65660;53.288;14.666;2023-12-22T07:00:29;9.67;;;3.13;;
76733;SDS011;65660;53.288;14.666;2023-12-22T07:05:29;8.27;;;2.97;;
76733;SDS011;65660;53.288;14.666;2023-12-22T07:10:30;7.93;;;2.40;;
76733;SDS011;65660;53.288;14.666;2023-12-22T07:15:30;8.77;;;3.43;;
76733;SDS011;65660;53.288;14.666;2023-12-22T07:20:31;8.90;;;3.30;;
76733;SDS011;65660;53.288;14.666;2023-12-22T07:25:35;5.70;;;3.27;;
76733;SDS011;65660;53.288;14.666;2023-12-22T07:30:36;7.97;;;3.57;;
76733;SDS011;65660;53.288;14.666;2023-12-22T07:35:37;10.03;;;3.57;;
76733;SDS011;65660;53.288;14.666;2023-12-22T07:40:37;12.40;;;3.47;;
76733;SDS011;65660;53.288;14.666;2023-12-22T07:45:38;8.87;;;3.30;;
76733;SDS011;65660;53.288;14.666;2023-12-22T07:50:38;8.43;;;3.70;;
76733;SDS011;65660;53.288;14.666;2023-12-22T07:55:39;13.03;;;3.80;;
76733;SDS011;65660;53.288;14.666;2023-12-22T08:00:39;9.70;;;3.47;;
76733;SDS011;65660;53.288;14.666;2023-12-22T08:05:40;10.00;;;3.93;;
76733;SDS011;65660;53.288;14.666;2023-12-22T08:10:40;9.87;;;3.80;;
76733;SDS011;65660;53.288;14.666;2023-12-22T08:15:41;15.03;;;5.50;;
76733;SDS011;65660;53.288;14.666;2023-12-22T08:20:41;9.30;;;3.13;;
76733;SDS011;65660;53.288;14.666;2023-12-22T08:25:42;12.17;;;3.40;;
76733;SDS011;65660;53.288;14.666;2023-12-22T08:30:42;12.97;;;4.27;;
76733;SDS011;65660;53.288;14.666;2023-12-22T08:35:43;13.60;;;3.27;;
76733;SDS011;65660;53.288;14.666;2023-12-22T08:40:43;13.80;;;3.30;;
76733;SDS011;65660;53.288;14.666;2023-12-22T08:45:44;12.20;;;3.97;;
76733;SDS011;65660;53.288;14.666;2023-12-22T08:50:44;13.27;;;4.00;;
76733;SDS011;65660;53.288;14.666;2023-12-22T08:55:45;10.03;;;3.40;;
76733;SDS011;65660;53.288;14.666;2023-12-22T09:00:45;17.40;;;3.50;;
76733;SDS011;65660;53.288;14.666;2023-12-22T09:05:46;10.70;;;3.33;;
76733;SDS011;65660;53.288;14.666;2023-12-22T09:10:46;13.60;;;3.63;;
76733;SDS011;65660;53.288;14.666;2023-12-22T09:15:47;13.07;;;3.70;;
76733;SDS011;65660;53.288;14.666;2023-12-22T09:20:47;13.57;;;3.30;;
76733;SDS011;65660;53.288;14.666;2023-12-22T09:25:48;13.80;;;3.10;;
76733;SDS011;65660;53.288;14.666;2023-12-22T09:30:48;10.00;;;4.70;;
76733;SDS011;65660;53.288;14.666;2023-12-22T09:35:48;11.57;;;3.07;;
76733;SDS011;65660;53.288;14.666;2023-12-22T09:40:49;11.57;;;3.17;;
76733;SDS011;65660;53.288;14.666;2023-12-22T09:45:50;11.60;;;3.13;;
76733;SDS011;65660;53.288;14.666;2023-12-22T09:50:51;8.30;;;3.10;;
76733;SDS011;65660;53.288;14.666;2023-12-22T09:55:51;11.43;;;3.63;;
76733;SDS011;65660;53.288;14.666;2023-12-22T10:00:54;9.63;;;3.40;;
76733;SDS011;65660;53.288;14.666;2023-12-22T10:05:55;14.33;;;3.30;;
76733;SDS011;65660;53.288;14.666;2023-12-22T10:10:55;15.63;;;3.67;;
76733;SDS011;65660;53.288;14.666;2023-12-22T10:15:56;16.80;;;3.40;;
76733;SDS011;65660;53.288;14.666;2023-12-22T10:20:57;11.80;;;3.17;;
76733;SDS011;65660;53.288;14.666;2023-12-22T10:25:58;7.80;;;3.00;;
76733;SDS011;65660;53.288;14.666;2023-12-22T10:30:58;12.80;;;3.07;;
76733;SDS011;65660;53.288;14.666;2023-12-22T10:35:59;11.97;;;3.30;;
76733;SDS011;65660;53.288;14.666;2023-12-22T10:41:00;12.60;;;3.67;;
76733;SDS011;65660;53.288;14.666;2023-12-22T10:46:03;17.80;;;4.10;;
76733;SDS011;65660;53.288;14.666;2023-12-22T10:51:08;12.00;;;3.47;;
76733;SDS011;65660;53.288;14.666;2023-12-22T10:56:10;11.17;;;3.37;;
76733;SDS011;65660;53.288;14.666;2023-12-22T11:01:11;14.17;;;3.50;;
76733;SDS011;65660;53.288;14.666;2023-12-22T11:06:14;13.07;;;3.63;;
76733;SDS011;65660;53.288;14.666;2023-12-22T11:11:16;9.43;;;3.47;;
76733;SDS011;65660;53.288;14.666;2023-12-22T11:16:21;13.83;;;3.93;;
76733;SDS011;65660;53.288;14.666;2023-12-22T11:21:22;12.17;;;3.70;;
76733;SDS011;65660;53.288;14.666;2023-12-22T11:26:24;12.03;;;4.47;;
76733;SDS011;65660;53.288;14.666;2023-12-22T11:31:26;13.03;;;4.13;;
76733;SDS011;65660;53.288;14.666;2023-12-22T11:36:28;11.93;;;3.50;;
76733;SDS011;65660;53.288;14.666;2023-12-22T11:41:31;15.13;;;3.57;;
76733;SDS011;65660;53.288;14.666;2023-12-22T11:46:33;12.83;;;4.27;;
76733;SDS011;65660;53.288;14.666;2023-12-22T11:51:34;14.13;;;4.67;;
76733;SDS011;65660;53.288;14.666;2023-12-22T11:56:34;13.40;;;5.07;;
76733;SDS011;65660;53.288;14.666;2023-12-22T12:01:35;17.00;;;6.37;;
76733;SDS011;65660;53.288;14.666;2023-12-22T12:06:38;11.87;;;3.70;;
76733;SDS011;65660;53.288;14.666;2023-12-22T12:16:55;16.37;;;4.40;;
76733;SDS011;65660;53.288;14.666;2023-12-22T12:22:00;15.60;;;4.30;;
76733;SDS011;65660;53.288;14.666;2023-12-22T12:27:01;14.50;;;4.70;;
76733;SDS011;65660;53.288;14.666;2023-12-22T12:32:02;13.93;;;4.50;;
76733;SDS011;65660;53.288;14.666;2023-12-22T12:37:03;15.57;;;4.40;;
76733;SDS011;65660;53.288;14.666;2023-12-22T12:42:05;7.93;;;5.70;;
76733;SDS011;65660;53.288;14.666;2023-12-22T12:47:11;15.90;;;4.87;;
76733;SDS011;65660;53.288;14.666;2023-12-22T12:52:15;12.00;;;6.77;;
76733;SDS011;65660;53.288;14.666;2023-12-22T12:57:16;13.43;;;4.50;;
76733;SDS011;65660;53.288;14.666;2023-12-22T13:02:17;12.40;;;4.43;;
76733;SDS011;65660;53.288;14.666;2023-12-22T13:07:23;11.97;;;4.73;;
76733;SDS011;65660;53.288;14.666;2023-12-22T13:12:24;16.27;;;5.33;;
76733;SDS011;65660;53.288;14.666;2023-12-22T13:17:24;12.23;;;5.33;;
76733;SDS011;65660;53.288;14.666;2023-12-22T13:22:25;14.83;;;7.60;;
76733;SDS011;65660;53.288;14.666;2023-12-22T13:27:25;15.50;;;4.77;;
76733;SDS011;65660;53.288;14.666;2023-12-22T13:32:26;13.50;;;5.07;;
76733;SDS011;65660;53.288;14.666;2023-12-22T13:37:26;12.03;;;5.23;;
76733;SDS011;65660;53.288;14.666;2023-12-22T13:42:27;13.63;;;4.97;;
76733;SDS011;65660;53.288;14.666;2023-12-22T13:47:27;10.50;;;5.23;;
76733;SDS011;65660;53.288;14.666;2023-12-22T13:52:28;12.90;;;4.73;;
76733;SDS011;65660;53.288;14.666;2023-12-22T13:57:29;16.30;;;4.93;;
76733;SDS011;65660;53.288;14.666;2023-12-22T14:02:30;12.53;;;4.40;;
76733;SDS011;65660;53.288;14.666;2023-12-22T14:07:30;10.13;;;4.20;;
76733;SDS011;65660;53.288;14.666;2023-12-22T14:12:31;15.27;;;4.97;;
76733;SDS011;65660;53.288;14.666;2023-12-22T14:17:31;13.37;;;5.77;;
76733;SDS011;65660;53.288;14.666;2023-12-22T14:22:32;9.97;;;4.53;;
76733;SDS011;65660;53.288;14.666;2023-12-22T14:27:33;13.03;;;5.20;;
76733;SDS011;65660;53.288;14.666;2023-12-22T14:32:33;12.53;;;6.67;;
76733;SDS011;65660;53.288;14.666;2023-12-22T14:37:33;12.53;;;4.20;;
76733;SDS011;65660;53.288;14.666;2023-12-22T14:42:34;11.43;;;6.20;;
76733;SDS011;65660;53.288;14.666;2023-12-22T14:47:35;12.70;;;4.37;;
76733;SDS011;65660;53.288;14.666;2023-12-22T14:52:35;9.83;;;4.23;;
76733;SDS011;65660;53.288;14.666;2023-12-22T14:57:36;11.90;;;4.13;;
76733;SDS011;65660;53.288;14.666;2023-12-22T15:02:36;13.00;;;4.90;;
76733;SDS011;65660;53.288;14.666;2023-12-22T15:07:37;8.93;;;3.43;;
76733;SDS011;65660;53.288;14.666;2023-12-22T15:12:38;15.97;;;5.13;;
76733;SDS011;65660;53.288;14.666;2023-12-22T15:17:38;12.10;;;4.50;;
76733;SDS011;65660;53.288;14.666;2023-12-22T15:22:39;9.47;;;5.80;;
76733;SDS011;65660;53.288;14.666;2023-12-22T15:27:39;12.37;;;5.50;;
76733;SDS011;65660;53.288;14.666;2023-12-22T15:32:40;9.83;;;3.73;;
76733;SDS011;65660;53.288;14.666;2023-12-22T15:37:40;9.53;;;3.60;;
76733;SDS011;65660;53.288;14.666;2023-12-22T15:42:41;11.20;;;4.60;;
76733;SDS011;65660;53.288;14.666;2023-12-22T15:47:41;33.60;;;11.77;;
76733;SDS011;65660;53.288;14.666;2023-12-22T15:52:42;18.10;;;6.77;;
76733;SDS011;65660;53.288;14.666;2023-12-22T15:57:42;6.03;;;3.57;;
76733;SDS011;65660;53.288;14.666;2023-12-22T16:02:43;9.27;;;4.10;;
76733;SDS011;65660;53.288;14.666;2023-12-22T16:07:43;6.00;;;3.70;;
76733;SDS011;65660;53.288;14.666;2023-12-22T16:12:43;6.10;;;4.20;;
76733;SDS011;65660;53.288;14.666;2023-12-22T16:17:44;10.50;;;4.17;;
76733;SDS011;65660;53.288;14.666;2023-12-22T16:22:44;7.93;;;4.07;;
76733;SDS011;65660;53.288;14.666;2023-12-22T16:27:45;5.63;;;3.83;;
76733;SDS011;65660;53.288;14.666;2023-12-22T16:32:45;6.87;;;3.80;;
76733;SDS011;65660;53.288;14.666;2023-12-22T16:37:48;8.53;;;3.80;;
76733;SDS011;65660;53.288;14.666;2023-12-22T16:42:49;8.20;;;4.00;;
76733;SDS011;65660;53.288;14.666;2023-12-22T16:47:49;6.10;;;4.50;;
76733;SDS011;65660;53.288;14.666;2023-12-22T16:52:50;8.77;;;4.33;;
76733;SDS011;65660;53.288;14.666;2023-12-22T16:57:51;9.33;;;3.97;;
76733;SDS011;65660;53.288;14.666;2023-12-22T17:02:51;10.27;;;4.20;;
76733;SDS011;65660;53.288;14.666;2023-12-22T17:07:52;7.80;;;6.03;;
76733;SDS011;65660;53.288;14.666;2023-12-22T17:12:52;9.53;;;4.10;;
76733;SDS011;65660;53.288;14.666;2023-12-22T17:17:53;7.40;;;3.70;;
76733;SDS011;65660;53.288;14.666;2023-12-22T17:22:53;8.47;;;7.00;;
76733;SDS011;65660;53.288;14.666;2023-12-22T17:27:54;6.50;;;4.30;;
76733;SDS011;65660;53.288;14.666;2023-12-22T17:32:54;7.13;;;3.90;;
76733;SDS011;65660;53.288;14.666;2023-12-22T17:37:54;7.57;;;3.60;;
76733;SDS011;65660;53.288;14.666;2023-12-22T17:42:55;6.63;;;3.63;;
76733;SDS011;65660;53.288;14.666;2023-12-22T17:47:56;5.37;;;3.30;;
76733;SDS011;65660;53.288;14.666;2023-12-22T17:52:56;5.10;;;3.50;;
76733;SDS011;65660;53.288;14.666;2023-12-22T17:57:57;8.00;;;5.07;;
76733;SDS011;65660;53.288;14.666;2023-12-22T18:02:57;8.67;;;3.20;;
76733;SDS011;65660;53.288;14.666;2023-12-22T18:07:58;7.53;;;3.40;;
76733;SDS011;65660;53.288;14.666;2023-12-22T18:12:58;8.27;;;4.57;;
76733;SDS011;65660;53.288;14.666;2023-12-22T18:17:59;7.27;;;3.53;;
76733;SDS011;65660;53.288;14.666;2023-12-22T18:22:59;10.23;;;3.43;;
76733;SDS011;65660;53.288;14.666;2023-12-22T18:28:00;7.13;;;3.50;;
76733;SDS011;65660;53.288;14.666;2023-12-22T18:33:00;7.83;;;3.40;;
76733;SDS011;65660;53.288;14.666;2023-12-22T18:38:01;8.23;;;3.40;;
76733;SDS011;65660;53.288;14.666;2023-12-22T18:43:01;6.90;;;3.50;;
76733;SDS011;65660;53.288;14.666;2023-12-22T18:48:02;6.10;;;3.40;;
76733;SDS011;65660;53.288;14.666;2023-12-22T18:53:02;9.47;;;3.97;;
76733;SDS011;65660;53.288;14.666;2023-12-22T18:58:03;6.93;;;4.27;;
76733;SDS011;65660;53.288;14.666;2023-12-22T19:03:05;6.17;;;3.97;;
76733;SDS011;65660;53.288;14.666;2023-12-22T19:08:05;10.00;;;4.00;;
76733;SDS011;65660;53.288;14.666;2023-12-22T19:13:06;6.77;;;3.80;;
76733;SDS011;65660;53.288;14.666;2023-12-22T19:18:06;5.83;;;4.30;;
76733;SDS011;65660;53.288;14.666;2023-12-22T19:23:07;7.63;;;3.60;;
76733;SDS011;65660;53.288;14.666;2023-12-22T19:28:07;4.83;;;3.80;;
76733;SDS011;65660;53.288;14.666;2023-12-22T19:33:08;10.57;;;4.00;;
76733;SDS011;65660;53.288;14.666;2023-12-22T19:38:08;5.47;;;3.70;;
76733;SDS011;65660;53.288;14.666;2023-12-22T19:43:09;8.80;;;4.97;;
76733;SDS011;65660;53.288;14.666;2023-12-22T19:48:09;8.33;;;3.37;;
76733;SDS011;65660;53.288;14.666;2023-12-22T19:53:10;9.53;;;3.70;;
76733;SDS011;65660;53.288;14.666;2023-12-22T19:58:10;9.00;;;4.57;;
76733;SDS011;65660;53.288;14.666;2023-12-22T20:03:11;6.47;;;4.47;;
76733;SDS011;65660;53.288;14.666;2023-12-22T20:08:12;6.97;;;5.93;;
76733;SDS011;65660;53.288;14.666;2023-12-22T20:13:12;15.10;;;9.47;;
76733;SDS011;65660;53.288;14.666;2023-12-22T20:18:13;9.20;;;4.77;;
76733;SDS011;65660;53.288;14.666;2023-12-22T20:23:13;6.20;;;3.50;;
76733;SDS011;65660;53.288;14.666;2023-12-22T20:28:14;5.80;;;3.50;;
76733;SDS011;65660;53.288;14.666;2023-12-22T20:33:15;5.80;;;3.30;;
76733;SDS011;65660;53.288;14.666;2023-12-22T20:38:15;4.83;;;3.50;;
76733;SDS011;65660;53.288;14.666;2023-12-22T20:43:16;6.10;;;3.50;;
76733;SDS011;65660;53.288;14.666;2023-12-22T20:48:17;7.03;;;3.93;;
76733;SDS011;65660;53.288;14.666;2023-12-22T20:53:18;5.63;;;3.57;;
76733;SDS011;65660;53.288;14.666;2023-12-22T20:58:19;10.10;;;3.50;;
76733;SDS011;65660;53.288;14.666;2023-12-22T21:03:20;5.37;;;3.20;;
76733;SDS011;65660;53.288;14.666;2023-12-22T21:08:21;7.20;;;3.70;;
76733;SDS011;65660;53.288;14.666;2023-12-22T21:13:21;9.53;;;3.53;;
76733;SDS011;65660;53.288;14.666;2023-12-22T21:18:22;7.50;;;4.07;;
76733;SDS011;65660;53.288;14.666;2023-12-22T21:23:22;6.33;;;3.23;;
76733;SDS011;65660;53.288;14.666;2023-12-22T21:28:23;5.20;;;3.13;;
76733;SDS011;65660;53.288;14.666;2023-12-22T21:33:23;5.80;;;3.40;;
76733;SDS011;65660;53.288;14.666;2023-12-22T21:38:24;7.83;;;4.73;;
76733;SDS011;65660;53.288;14.666;2023-12-22T21:43:24;4.70;;;3.77;;
76733;SDS011;65660;53.288;14.666;2023-12-22T21:48:25;8.50;;;3.20;;
76733;SDS011;65660;53.288;14.666;2023-12-22T21:53:25;5.43;;;3.37;;
76733;SDS011;65660;53.288;14.666;2023-12-22T21:58:26;6.50;;;5.63;;
76733;SDS011;65660;53.288;14.666;2023-12-22T22:03:26;10.47;;;5.63;;
76733;SDS011;65660;53.288;14.666;2023-12-22T22:08:27;7.50;;;4.30;;
76733;SDS011;65660;53.288;14.666;2023-12-22T22:13:27;7.13;;;4.63;;
76733;SDS011;65660;53.288;14.666;2023-12-22T22:18:28;6.77;;;4.63;;
76733;SDS011;65660;53.288;14.666;2023-12-22T22:23:28;5.40;;;3.50;;
76733;SDS011;65660;53.288;14.666;2023-12-22T22:28:29;5.93;;;3.50;;
76733;SDS011;65660;53.288;14.666;2023-12-22T22:33:30;6.17;;;3.40;;
76733;SDS011;65660;53.288;14.666;2023-12-22T22:38:31;7.73;;;3.17;;
76733;SDS011;65660;53.288;14.666;2023-12-22T22:43:31;6.00;;;4.40;;
76733;SDS011;65660;53.288;14.666;2023-12-22T22:48:32;7.63;;;3.80;;
76733;SDS011;65660;53.288;14.666;2023-12-22T22:53:32;7.47;;;2.80;;
76733;SDS011;65660;53.288;14.666;2023-12-22T22:58:33;3.93;;;2.83;;
76733;SDS011;65660;53.288;14.666;2023-12-22T23:03:33;7.67;;;3.07;;
76733;SDS011;65660;53.288;14.666;2023-12-22T23:08:34;4.50;;;2.60;;
76733;SDS011;65660;53.288;14.666;2023-12-22T23:13:34;3.93;;;2.67;;
76733;SDS011;65660;53.288;14.666;2023-12-22T23:18:35;4.97;;;3.13;;
76733;SDS011;65660;53.288;14.666;2023-12-22T23:23:35;6.13;;;3.00;;
76733;SDS011;65660;53.288;14.666;2023-12-22T23:28:36;6.77;;;2.83;;
76733;SDS011;65660;53.288;14.666;2023-12-22T23:33:36;5.87;;;2.87;;
76733;SDS011;65660;53.288;14.666;2023-12-22T23:38:37;5.33;;;2.83;;
76733;SDS011;65660;53.288;14.666;2023-12-22T23:43:41;6.30;;;3.10;;
76733;SDS011;65660;53.288;14.666;2023-12-22T23:48:41;6.10;;;3.97;;
76733;SDS011;65660;53.288;14.666;2023-12-22T23:53:42;6.03;;;3.47;;
76733;SDS011;65660;53.288;14.666;2023-12-22T23:58:42;9.43;;;6.23;;
